aviador You're here:

KQD3 Decoded Metar

in
Report Time2017-11-24 00:55:00
UTC Time2017-11-24 01:50:03
Flight Rules mvfr MVFR
WindCalm
Visibility9999 m
Phenomena:N/A
Clouds:Broken 025 Hf
Expected CloudBase > 1,600 ft AGL from Temp-Dew spread
Ceiling2,500 ft
Temp25°C
Dew Point21°C (79% RH)
QNH1014 hPa
Raw Report
METAR KQD3 240055Z 00000KT 9999 BKN025 25/21 A2993 RMK SLP101 WND DATA
ESTMD T02500208 $=

Extra information for KQD3:More info

Social comments